sensor_id;sensor_type;location;lat;lon;timestamp;pressure;altitude;pressure_sealevel;temperature;humidity
1926;BME280;964;42.606;23.588;2023-08-12T00:00:11;95037.19;;;42.79;20.88
1926;BME280;964;42.606;23.588;2023-08-12T00:02:39;95035.03;;;43.00;21.09
1926;BME280;964;42.606;23.588;2023-08-12T00:05:06;95035.38;;;42.89;21.74
1926;BME280;964;42.606;23.588;2023-08-12T00:07:33;95037.38;;;42.81;21.46
1926;BME280;964;42.606;23.588;2023-08-12T00:10:00;95045.41;;;42.92;20.96
1926;BME280;964;42.606;23.588;2023-08-12T00:12:28;95042.81;;;43.30;20.83
1926;BME280;964;42.606;23.588;2023-08-12T00:14:56;95046.72;;;42.91;21.09
1926;BME280;964;42.606;23.588;2023-08-12T00:17:23;95042.41;;;42.54;21.58
1926;BME280;964;42.606;23.588;2023-08-12T00:19:49;95043.00;;;42.61;21.13
1926;BME280;964;42.606;23.588;2023-08-12T00:22:16;95041.88;;;42.84;21.08
1926;BME280;964;42.606;23.588;2023-08-12T00:24:43;95030.09;;;42.78;21.28
1926;BME280;964;42.606;23.588;2023-08-12T00:27:10;95027.91;;;42.56;21.51
1926;BME280;964;42.606;23.588;2023-08-12T00:29:36;95045.84;;;42.19;21.55
1926;BME280;964;42.606;23.588;2023-08-12T00:32:05;95043.41;;;41.74;21.98
1926;BME280;964;42.606;23.588;2023-08-12T00:34:32;95039.44;;;41.49;22.82
1926;BME280;964;42.606;23.588;2023-08-12T00:36:59;95046.38;;;40.95;22.80
1926;BME280;964;42.606;23.588;2023-08-12T00:39:26;95035.94;;;41.69;22.19
1926;BME280;964;42.606;23.588;2023-08-12T00:41:53;95040.78;;;41.89;22.03
1926;BME280;964;42.606;23.588;2023-08-12T00:44:19;95035.59;;;41.52;22.47
1926;BME280;964;42.606;23.588;2023-08-12T00:46:46;95044.81;;;41.47;22.29
1926;BME280;964;42.606;23.588;2023-08-12T00:49:15;95045.22;;;41.51;22.55
1926;BME280;964;42.606;23.588;2023-08-12T00:51:44;95044.47;;;40.77;23.34
1926;BME280;964;42.606;23.588;2023-08-12T00:54:14;95031.44;;;41.66;22.06
1926;BME280;964;42.606;23.588;2023-08-12T00:56:41;95035.16;;;41.48;22.11
1926;BME280;964;42.606;23.588;2023-08-12T00:59:08;95029.84;;;41.91;22.40
1926;BME280;964;42.606;23.588;2023-08-12T01:01:39;95027.09;;;41.57;21.90
1926;BME280;964;42.606;23.588;2023-08-12T01:04:06;95034.91;;;41.59;21.98
1926;BME280;964;42.606;23.588;2023-08-12T01:06:35;95031.53;;;41.53;22.07
1926;BME280;964;42.606;23.588;2023-08-12T01:09:05;95023.41;;;41.96;22.62
1926;BME280;964;42.606;23.588;2023-08-12T01:11:36;95030.44;;;41.56;22.60
1926;BME280;964;42.606;23.588;2023-08-12T01:14:08;95025.44;;;41.75;22.66
1926;BME280;964;42.606;23.588;2023-08-12T01:16:42;95024.03;;;41.48;22.82
1926;BME280;964;42.606;23.588;2023-08-12T01:19:11;95022.16;;;41.64;22.17
1926;BME280;964;42.606;23.588;2023-08-12T01:21:46;95028.44;;;40.83;22.81
1926;BME280;964;42.606;23.588;2023-08-12T01:24:14;95036.13;;;40.51;23.59
1926;BME280;964;42.606;23.588;2023-08-12T01:26:41;95027.38;;;40.86;23.60
1926;BME280;964;42.606;23.588;2023-08-12T01:29:08;95027.19;;;40.58;23.01
1926;BME280;964;42.606;23.588;2023-08-12T01:31:39;95020.00;;;40.62;23.36
1926;BME280;964;42.606;23.588;2023-08-12T01:34:12;95024.59;;;40.86;22.80
1926;BME280;964;42.606;23.588;2023-08-12T01:36:46;95021.47;;;40.90;22.91
1926;BME280;964;42.606;23.588;2023-08-12T01:39:17;95017.34;;;40.57;23.47
1926;BME280;964;42.606;23.588;2023-08-12T01:41:45;95019.88;;;40.42;23.51
1926;BME280;964;42.606;23.588;2023-08-12T01:44:12;95024.81;;;40.75;23.02
1926;BME280;964;42.606;23.588;2023-08-12T01:46:39;95025.22;;;40.53;23.29
1926;BME280;964;42.606;23.588;2023-08-12T01:49:05;95026.31;;;40.37;23.46
1926;BME280;964;42.606;23.588;2023-08-12T01:51:32;95023.06;;;41.11;22.58
1926;BME280;964;42.606;23.588;2023-08-12T01:53:58;95031.75;;;40.29;23.04
1926;BME280;964;42.606;23.588;2023-08-12T01:56:26;95029.22;;;39.99;24.16
1926;BME280;964;42.606;23.588;2023-08-12T01:58:53;95028.19;;;40.15;23.69
1926;BME280;964;42.606;23.588;2023-08-12T02:01:20;95022.66;;;40.42;22.96
1926;BME280;964;42.606;23.588;2023-08-12T02:03:46;95027.16;;;40.71;23.41
1926;BME280;964;42.606;23.588;2023-08-12T02:06:13;95016.16;;;41.26;22.48
1926;BME280;964;42.606;23.588;2023-08-12T02:08:39;95025.44;;;41.07;22.49
1926;BME280;964;42.606;23.588;2023-08-12T02:11:06;95023.22;;;41.27;22.08
1926;BME280;964;42.606;23.588;2023-08-12T02:13:34;95026.94;;;40.82;22.66
1926;BME280;964;42.606;23.588;2023-08-12T02:16:01;95031.03;;;40.68;23.13
1926;BME280;964;42.606;23.588;2023-08-12T02:18:27;95029.22;;;39.67;23.68
1926;BME280;964;42.606;23.588;2023-08-12T02:20:54;95030.06;;;39.94;23.91
1926;BME280;964;42.606;23.588;2023-08-12T02:23:20;95020.66;;;39.84;23.69
1926;BME280;964;42.606;23.588;2023-08-12T02:25:47;95031.41;;;40.20;23.10
1926;BME280;964;42.606;23.588;2023-08-12T02:28:14;95031.88;;;40.37;22.91
1926;BME280;964;42.606;23.588;2023-08-12T02:30:43;95034.63;;;40.24;23.40
1926;BME280;964;42.606;23.588;2023-08-12T02:33:10;95034.22;;;40.59;22.42
1926;BME280;964;42.606;23.588;2023-08-12T02:35:36;95028.00;;;41.05;22.51
1926;BME280;964;42.606;23.588;2023-08-12T02:38:03;95037.19;;;40.22;22.91
1926;BME280;964;42.606;23.588;2023-08-12T02:40:30;95034.22;;;40.98;22.47
1926;BME280;964;42.606;23.588;2023-08-12T02:42:57;95042.41;;;40.51;22.55
1926;BME280;964;42.606;23.588;2023-08-12T02:45:23;95045.97;;;40.39;22.86
1926;BME280;964;42.606;23.588;2023-08-12T02:47:52;95041.16;;;40.39;22.71
1926;BME280;964;42.606;23.588;2023-08-12T02:50:18;95044.25;;;40.49;22.76
1926;BME280;964;42.606;23.588;2023-08-12T02:52:45;95048.97;;;40.54;23.28
1926;BME280;964;42.606;23.588;2023-08-12T02:55:11;95051.00;;;40.08;23.12
1926;BME280;964;42.606;23.588;2023-08-12T02:57:38;95052.47;;;40.28;23.33
1926;BME280;964;42.606;23.588;2023-08-12T03:00:06;95059.66;;;40.37;23.30
1926;BME280;964;42.606;23.588;2023-08-12T03:02:33;95047.25;;;40.77;22.98
1926;BME280;964;42.606;23.588;2023-08-12T03:05:01;95049.78;;;40.23;22.87
1926;BME280;964;42.606;23.588;2023-08-12T03:07:28;95042.13;;;40.81;22.88
1926;BME280;964;42.606;23.588;2023-08-12T03:09:55;95048.44;;;40.55;23.14
1926;BME280;964;42.606;23.588;2023-08-12T03:12:21;95062.44;;;40.05;23.15
1926;BME280;964;42.606;23.588;2023-08-12T03:14:48;95061.31;;;39.82;23.42
1926;BME280;964;42.606;23.588;2023-08-12T03:17:15;95044.38;;;40.56;22.50
1926;BME280;964;42.606;23.588;2023-08-12T03:19:41;95056.84;;;40.24;23.29
1926;BME280;964;42.606;23.588;2023-08-12T03:22:10;95055.38;;;40.49;22.46
1926;BME280;964;42.606;23.588;2023-08-12T03:24:36;95058.06;;;40.54;22.92
1926;BME280;964;42.606;23.588;2023-08-12T03:27:03;95055.50;;;40.83;22.14
1926;BME280;964;42.606;23.588;2023-08-12T03:29:30;95052.41;;;40.60;22.92
1926;BME280;964;42.606;23.588;2023-08-12T03:31:56;95056.00;;;40.42;22.75
1926;BME280;964;42.606;23.588;2023-08-12T03:34:23;95060.25;;;39.85;23.25
1926;BME280;964;42.606;23.588;2023-08-12T03:36:49;95057.00;;;40.12;22.84
1926;BME280;964;42.606;23.588;2023-08-12T03:39:17;95055.91;;;39.89;23.31
1926;BME280;964;42.606;23.588;2023-08-12T03:41:44;95053.78;;;40.40;23.39
1926;BME280;964;42.606;23.588;2023-08-12T03:44:11;95051.72;;;40.41;23.13
1926;BME280;964;42.606;23.588;2023-08-12T03:46:38;95047.91;;;40.44;22.64
1926;BME280;964;42.606;23.588;2023-08-12T03:49:04;95052.16;;;40.32;23.05
1926;BME280;964;42.606;23.588;2023-08-12T03:51:31;95053.03;;;40.53;22.54
1926;BME280;964;42.606;23.588;2023-08-12T03:53:58;95048.97;;;40.93;22.67
1926;BME280;964;42.606;23.588;2023-08-12T03:56:26;95057.75;;;40.71;22.50
1926;BME280;964;42.606;23.588;2023-08-12T03:58:52;95057.75;;;40.97;22.21
1926;BME280;964;42.606;23.588;2023-08-12T04:01:19;95064.47;;;40.62;23.26
1926;BME280;964;42.606;23.588;2023-08-12T04:03:45;95065.88;;;40.82;22.40
1926;BME280;964;42.606;23.588;2023-08-12T04:06:12;95061.81;;;40.57;22.39
1926;BME280;964;42.606;23.588;2023-08-12T04:08:39;95053.03;;;40.66;22.97
1926;BME280;964;42.606;23.588;2023-08-12T04:11:06;95057.44;;;40.88;22.78
1926;BME280;964;42.606;23.588;2023-08-12T04:13:34;95051.03;;;41.40;22.61
1926;BME280;964;42.606;23.588;2023-08-12T04:16:00;95058.94;;;41.49;22.75
1926;BME280;964;42.606;23.588;2023-08-12T04:18:27;95055.94;;;41.47;22.80
1926;BME280;964;42.606;23.588;2023-08-12T04:20:53;95050.25;;;41.73;22.07
1926;BME280;964;42.606;23.588;2023-08-12T04:23:20;95059.66;;;41.83;22.32
1926;BME280;964;42.606;23.588;2023-08-12T04:25:47;95063.13;;;42.18;22.08
1926;BME280;964;42.606;23.588;2023-08-12T04:28:15;95062.41;;;41.96;22.12
1926;BME280;964;42.606;23.588;2023-08-12T04:30:44;95063.16;;;41.97;22.22
1926;BME280;964;42.606;23.588;2023-08-12T04:33:11;95065.31;;;42.12;21.89
1926;BME280;964;42.606;23.588;2023-08-12T04:35:38;95061.03;;;42.11;22.09
1926;BME280;964;42.606;23.588;2023-08-12T04:38:05;95057.34;;;42.16;21.42
1926;BME280;964;42.606;23.588;2023-08-12T04:40:32;95062.66;;;41.85;21.92
1926;BME280;964;42.606;23.588;2023-08-12T04:42:59;95067.34;;;42.60;21.53
1926;BME280;964;42.606;23.588;2023-08-12T04:45:25;95068.03;;;42.04;21.70
1926;BME280;964;42.606;23.588;2023-08-12T04:47:54;95068.31;;;41.59;22.05
1926;BME280;964;42.606;23.588;2023-08-12T04:50:21;95066.88;;;41.99;21.88
1926;BME280;964;42.606;23.588;2023-08-12T04:52:47;95075.13;;;41.71;22.55
1926;BME280;964;42.606;23.588;2023-08-12T04:55:14;95081.56;;;41.19;22.48
1926;BME280;964;42.606;23.588;2023-08-12T04:57:42;95072.22;;;41.43;21.89
1926;BME280;964;42.606;23.588;2023-08-12T05:00:09;95073.97;;;41.20;22.35
1926;BME280;964;42.606;23.588;2023-08-12T05:02:36;95069.25;;;41.28;22.30
1926;BME280;964;42.606;23.588;2023-08-12T05:05:07;95062.81;;;42.00;21.68
1926;BME280;964;42.606;23.588;2023-08-12T05:07:34;95065.22;;;41.83;22.05
1926;BME280;964;42.606;23.588;2023-08-12T05:10:01;95064.53;;;41.90;22.13
1926;BME280;964;42.606;23.588;2023-08-12T05:12:27;95062.56;;;42.40;21.91
1926;BME280;964;42.606;23.588;2023-08-12T05:14:54;95064.50;;;42.73;20.95
1926;BME280;964;42.606;23.588;2023-08-12T05:17:21;95069.44;;;42.39;21.42
1926;BME280;964;42.606;23.588;2023-08-12T05:19:48;95069.63;;;41.79;21.78
1926;BME280;964;42.606;23.588;2023-08-12T05:22:16;95071.56;;;42.25;21.41
1926;BME280;964;42.606;23.588;2023-08-12T05:24:43;95063.47;;;41.93;22.06
1926;BME280;964;42.606;23.588;2023-08-12T05:27:10;95068.38;;;42.00;22.52
1926;BME280;964;42.606;23.588;2023-08-12T05:29:36;95079.72;;;41.82;22.57
1926;BME280;964;42.606;23.588;2023-08-12T05:32:03;95086.44;;;41.52;22.73
1926;BME280;964;42.606;23.588;2023-08-12T05:34:30;95069.63;;;42.97;21.53
1926;BME280;964;42.606;23.588;2023-08-12T05:36:56;95077.81;;;42.18;22.41
1926;BME280;964;42.606;23.588;2023-08-12T05:39:24;95080.31;;;42.78;21.16
1926;BME280;964;42.606;23.588;2023-08-12T05:41:51;95082.56;;;42.59;21.05
1926;BME280;964;42.606;23.588;2023-08-12T05:44:18;95083.84;;;43.15;21.17
1926;BME280;964;42.606;23.588;2023-08-12T05:46:44;95078.78;;;43.41;20.78
1926;BME280;964;42.606;23.588;2023-08-12T05:49:11;95068.59;;;43.59;20.35
1926;BME280;964;42.606;23.588;2023-08-12T05:51:38;95073.16;;;44.00;20.13
1926;BME280;964;42.606;23.588;2023-08-12T05:54:04;95074.59;;;42.84;20.76
1926;BME280;964;42.606;23.588;2023-08-12T05:56:33;95066.72;;;43.54;20.42
1926;BME280;964;42.606;23.588;2023-08-12T05:59:00;95067.38;;;43.32;20.60
1926;BME280;964;42.606;23.588;2023-08-12T06:01:26;95066.38;;;43.73;20.44
1926;BME280;964;42.606;23.588;2023-08-12T06:03:53;95060.13;;;44.18;20.32
1926;BME280;964;42.606;23.588;2023-08-12T06:06:20;95062.28;;;43.66;20.32
1926;BME280;964;42.606;23.588;2023-08-12T06:08:47;95061.59;;;44.04;20.24
1926;BME280;964;42.606;23.588;2023-08-12T06:11:13;95057.88;;;44.09;20.03
1926;BME280;964;42.606;23.588;2023-08-12T06:13:41;95061.75;;;43.17;20.44
1926;BME280;964;42.606;23.588;2023-08-12T06:16:08;95047.84;;;44.21;19.89
1926;BME280;964;42.606;23.588;2023-08-12T06:18:35;95045.78;;;44.36;20.04
1926;BME280;964;42.606;23.588;2023-08-12T06:21:01;95055.06;;;44.09;19.97
1926;BME280;964;42.606;23.588;2023-08-12T06:23:28;95047.63;;;43.88;20.80
1926;BME280;964;42.606;23.588;2023-08-12T06:25:55;95044.47;;;44.00;20.65
1926;BME280;964;42.606;23.588;2023-08-12T06:28:22;95055.88;;;43.43;20.45
1926;BME280;964;42.606;23.588;2023-08-12T06:30:50;95047.78;;;43.68;20.10
1926;BME280;964;42.606;23.588;2023-08-12T06:33:16;95048.34;;;43.15;20.94
1926;BME280;964;42.606;23.588;2023-08-12T06:35:44;95035.50;;;44.54;19.66
1926;BME280;964;42.606;23.588;2023-08-12T06:38:10;95047.13;;;43.39;19.83
1926;BME280;964;42.606;23.588;2023-08-12T06:40:38;95032.47;;;45.30;18.83
1926;BME280;964;42.606;23.588;2023-08-12T06:43:05;95034.00;;;44.68;19.07
1926;BME280;964;42.606;23.588;2023-08-12T06:45:33;95030.31;;;44.58;19.21
1926;BME280;964;42.606;23.588;2023-08-12T06:48:01;95038.53;;;42.93;20.56
1926;BME280;964;42.606;23.588;2023-08-12T06:50:28;95027.94;;;44.95;19.14
1926;BME280;964;42.606;23.588;2023-08-12T06:52:55;95026.06;;;45.05;18.76
1926;BME280;964;42.606;23.588;2023-08-12T06:55:22;95020.78;;;45.16;18.41
1926;BME280;964;42.606;23.588;2023-08-12T06:57:49;95031.78;;;44.44;19.44
1926;BME280;964;42.606;23.588;2023-08-12T07:00:15;95030.81;;;45.27;19.15
1926;BME280;964;42.606;23.588;2023-08-12T07:02:42;95031.97;;;45.89;18.61
1926;BME280;964;42.606;23.588;2023-08-12T07:05:10;95030.84;;;45.19;19.15
1926;BME280;964;42.606;23.588;2023-08-12T07:07:37;95019.72;;;45.76;18.30
1926;BME280;964;42.606;23.588;2023-08-12T07:10:04;95025.22;;;46.75;17.94
1926;BME280;964;42.606;23.588;2023-08-12T07:12:31;95013.34;;;47.02;17.03
1926;BME280;964;42.606;23.588;2023-08-12T07:14:58;95025.06;;;45.57;19.10
1926;BME280;964;42.606;23.588;2023-08-12T07:17:25;95011.03;;;46.91;18.18
1926;BME280;964;42.606;23.588;2023-08-12T07:19:51;95015.44;;;46.42;17.55
1926;BME280;964;42.606;23.588;2023-08-12T07:22:19;95010.25;;;47.51;17.34
1926;BME280;964;42.606;23.588;2023-08-12T07:24:46;95008.22;;;47.08;18.00
1926;BME280;964;42.606;23.588;2023-08-12T07:27:13;95006.34;;;46.59;17.74
1926;BME280;964;42.606;23.588;2023-08-12T07:29:39;95016.19;;;47.72;16.83
1926;BME280;964;42.606;23.588;2023-08-12T07:32:06;95007.53;;;48.43;16.85
1926;BME280;964;42.606;23.588;2023-08-12T07:34:33;95005.75;;;48.57;16.45
1926;BME280;964;42.606;23.588;2023-08-12T07:36:59;94996.41;;;48.36;16.75
1926;BME280;964;42.606;23.588;2023-08-12T07:39:27;95005.25;;;47.06;17.27
1926;BME280;964;42.606;23.588;2023-08-12T07:41:54;94990.91;;;48.28;16.94
1926;BME280;964;42.606;23.588;2023-08-12T07:44:20;94997.47;;;48.40;16.40
1926;BME280;964;42.606;23.588;2023-08-12T07:46:47;94993.75;;;49.34;16.23
1926;BME280;964;42.606;23.588;2023-08-12T07:49:15;94993.03;;;48.37;16.26
1926;BME280;964;42.606;23.588;2023-08-12T07:51:42;94989.16;;;48.33;16.01
1926;BME280;964;42.606;23.588;2023-08-12T07:54:08;94985.13;;;49.41;15.86
1926;BME280;964;42.606;23.588;2023-08-12T07:56:36;94989.91;;;48.43;16.49
1926;BME280;964;42.606;23.588;2023-08-12T07:59:03;94987.28;;;48.74;16.76
1926;BME280;964;42.606;23.588;2023-08-12T08:01:30;94985.16;;;49.32;16.08
1926;BME280;964;42.606;23.588;2023-08-12T08:03:57;94986.84;;;49.66;16.07
1926;BME280;964;42.606;23.588;2023-08-12T08:06:24;94985.28;;;49.43;16.05
1926;BME280;964;42.606;23.588;2023-08-12T08:08:50;94986.06;;;49.34;15.77
1926;BME280;964;42.606;23.588;2023-08-12T08:11:17;94979.25;;;49.08;16.22
1926;BME280;964;42.606;23.588;2023-08-12T08:13:45;94985.06;;;49.01;16.23
1926;BME280;964;42.606;23.588;2023-08-12T08:16:12;94989.66;;;48.68;16.37
1926;BME280;964;42.606;23.588;2023-08-12T08:18:38;94977.38;;;49.92;15.90
1926;BME280;964;42.606;23.588;2023-08-12T08:21:05;94980.69;;;50.40;15.61
1926;BME280;964;42.606;23.588;2023-08-12T08:23:32;94982.81;;;48.90;15.99
1926;BME280;964;42.606;23.588;2023-08-12T08:25:59;94970.97;;;50.53;15.16
1926;BME280;964;42.606;23.588;2023-08-12T08:28:25;94974.09;;;50.05;15.08
1926;BME280;964;42.606;23.588;2023-08-12T08:30:54;94972.28;;;49.19;16.13
1926;BME280;964;42.606;23.588;2023-08-12T08:33:20;94978.06;;;47.89;16.56
1926;BME280;964;42.606;23.588;2023-08-12T08:35:47;94983.84;;;48.46;16.42
1926;BME280;964;42.606;23.588;2023-08-12T08:38:14;94965.31;;;51.07;15.30
1926;BME280;964;42.606;23.588;2023-08-12T08:40:41;94955.50;;;51.08;14.99
1926;BME280;964;42.606;23.588;2023-08-12T08:43:08;94961.88;;;50.12;14.79
1926;BME280;964;42.606;23.588;2023-08-12T08:45:36;94973.59;;;49.37;15.81
1926;BME280;964;42.606;23.588;2023-08-12T08:48:07;94952.16;;;51.00;14.71
1926;BME280;964;42.606;23.588;2023-08-12T08:50:36;94962.94;;;50.28;14.84
1926;BME280;964;42.606;23.588;2023-08-12T08:53:03;94955.69;;;51.33;14.86
1926;BME280;964;42.606;23.588;2023-08-12T08:55:31;94953.88;;;51.50;14.70
1926;BME280;964;42.606;23.588;2023-08-12T08:57:58;94956.25;;;51.20;14.70
1926;BME280;964;42.606;23.588;2023-08-12T09:00:25;94945.50;;;51.40;14.56
1926;BME280;964;42.606;23.588;2023-08-12T09:02:53;94947.28;;;51.80;14.60
1926;BME280;964;42.606;23.588;2023-08-12T09:05:21;94943.16;;;50.92;13.97
1926;BME280;964;42.606;23.588;2023-08-12T09:07:49;94930.47;;;52.30;13.65
1926;BME280;964;42.606;23.588;2023-08-12T09:10:20;94929.56;;;51.79;14.37
1926;BME280;964;42.606;23.588;2023-08-12T09:12:47;94930.03;;;51.53;14.60
1926;BME280;964;42.606;23.588;2023-08-12T09:15:16;94932.91;;;52.48;14.20
1926;BME280;964;42.606;23.588;2023-08-12T09:17:43;94923.06;;;52.99;13.84
1926;BME280;964;42.606;23.588;2023-08-12T09:20:10;94939.34;;;51.67;14.42
1926;BME280;964;42.606;23.588;2023-08-12T09:22:39;94923.56;;;51.73;14.93
1926;BME280;964;42.606;23.588;2023-08-12T09:25:08;94925.75;;;51.52;14.90
1926;BME280;964;42.606;23.588;2023-08-12T09:27:36;94916.28;;;52.05;14.45
1926;BME280;964;42.606;23.588;2023-08-12T09:30:04;94921.31;;;51.72;14.29
1926;BME280;964;42.606;23.588;2023-08-12T09:32:31;94924.13;;;50.17;14.73
1926;BME280;964;42.606;23.588;2023-08-12T09:34:59;94912.97;;;51.74;13.75
1926;BME280;964;42.606;23.588;2023-08-12T09:37:28;94899.19;;;53.02;13.27
1926;BME280;964;42.606;23.588;2023-08-12T09:39:56;94897.75;;;53.81;12.64
1926;BME280;964;42.606;23.588;2023-08-12T09:42:23;94907.19;;;51.72;14.22
1926;BME280;964;42.606;23.588;2023-08-12T09:44:50;94899.28;;;52.05;13.89
1926;BME280;964;42.606;23.588;2023-08-12T09:47:16;94899.81;;;53.01;13.12
1926;BME280;964;42.606;23.588;2023-08-12T09:49:44;94895.31;;;52.84;13.49
1926;BME280;964;42.606;23.588;2023-08-12T09:52:11;94899.72;;;52.62;13.75
1926;BME280;964;42.606;23.588;2023-08-12T09:54:38;94894.28;;;53.83;13.35
1926;BME280;964;42.606;23.588;2023-08-12T09:57:08;94891.69;;;52.95;13.39
1926;BME280;964;42.606;23.588;2023-08-12T09:59:37;94893.38;;;52.01;13.66
1926;BME280;964;42.606;23.588;2023-08-12T10:02:05;94881.75;;;53.47;12.89
1926;BME280;964;42.606;23.588;2023-08-12T10:04:36;94876.56;;;54.39;12.97
1926;BME280;964;42.606;23.588;2023-08-12T10:07:05;94891.38;;;52.89;13.62
1926;BME280;964;42.606;23.588;2023-08-12T10:09:32;94886.38;;;52.76;14.05
1926;BME280;964;42.606;23.588;2023-08-12T10:11:59;94872.19;;;54.36;13.03
1926;BME280;964;42.606;23.588;2023-08-12T10:14:27;94865.06;;;55.25;12.83
1926;BME280;964;42.606;23.588;2023-08-12T10:16:55;94873.28;;;54.01;13.08
1926;BME280;964;42.606;23.588;2023-08-12T10:19:22;94869.06;;;53.75;12.26
1926;BME280;964;42.606;23.588;2023-08-12T10:21:54;94875.38;;;52.57;13.23
1926;BME280;964;42.606;23.588;2023-08-12T10:24:23;94861.06;;;53.30;13.93
1926;BME280;964;42.606;23.588;2023-08-12T10:26:51;94859.00;;;53.45;13.86
1926;BME280;964;42.606;23.588;2023-08-12T10:29:18;94853.63;;;53.78;12.79
1926;BME280;964;42.606;23.588;2023-08-12T10:31:47;94848.84;;;54.23;12.85
1926;BME280;964;42.606;23.588;2023-08-12T10:34:20;94853.47;;;53.21;13.47
1926;BME280;964;42.606;23.588;2023-08-12T10:36:47;94859.06;;;52.94;13.70
1926;BME280;964;42.606;23.588;2023-08-12T10:39:14;94844.06;;;53.71;12.79
1926;BME280;964;42.606;23.588;2023-08-12T10:41:50;94845.91;;;54.80;12.74
1926;BME280;964;42.606;23.588;2023-08-12T10:44:19;94845.22;;;54.37;12.48
1926;BME280;964;42.606;23.588;2023-08-12T10:46:51;94850.31;;;54.24;12.21
1926;BME280;964;42.606;23.588;2023-08-12T10:49:19;94833.31;;;54.99;11.62
1926;BME280;964;42.606;23.588;2023-08-12T10:51:48;94824.25;;;55.34;11.84
1926;BME280;964;42.606;23.588;2023-08-12T10:54:17;94833.09;;;53.11;12.04
1926;BME280;964;42.606;23.588;2023-08-12T10:57:05;94840.41;;;53.55;12.40
1926;BME280;964;42.606;23.588;2023-08-12T10:59:50;94838.72;;;53.77;12.62
1926;BME280;964;42.606;23.588;2023-08-12T11:02:20;94821.94;;;54.24;11.24
1926;BME280;964;42.606;23.588;2023-08-12T11:04:52;94819.34;;;54.44;11.77
1926;BME280;964;42.606;23.588;2023-08-12T11:07:20;94830.28;;;53.93;11.88
1926;BME280;964;42.606;23.588;2023-08-12T11:09:51;94836.94;;;52.03;13.62
1926;BME280;964;42.606;23.588;2023-08-12T11:12:21;94838.06;;;51.63;11.95
1926;BME280;964;42.606;23.588;2023-08-12T11:14:53;94827.28;;;51.36;13.24
1926;BME280;964;42.606;23.588;2023-08-12T11:17:28;94818.88;;;52.59;11.92
1926;BME280;964;42.606;23.588;2023-08-12T11:19:55;94828.22;;;51.99;12.59
1926;BME280;964;42.606;23.588;2023-08-12T11:22:22;94825.69;;;53.45;11.89
1926;BME280;964;42.606;23.588;2023-08-12T11:24:49;94812.75;;;54.26;11.79
1926;BME280;964;42.606;23.588;2023-08-12T11:27:17;94810.72;;;54.13;11.97
1926;BME280;964;42.606;23.588;2023-08-12T11:29:44;94827.59;;;52.63;12.24
1926;BME280;964;42.606;23.588;2023-08-12T11:32:11;94806.34;;;54.55;11.36
1926;BME280;964;42.606;23.588;2023-08-12T11:34:40;94813.84;;;53.49;12.46
1926;BME280;964;42.606;23.588;2023-08-12T11:37:06;94813.81;;;54.03;11.16
1926;BME280;964;42.606;23.588;2023-08-12T11:39:34;94801.19;;;54.81;10.67
1926;BME280;964;42.606;23.588;2023-08-12T11:42:01;94797.97;;;55.51;11.79
1926;BME280;964;42.606;23.588;2023-08-12T11:44:28;94799.56;;;55.07;11.60
1926;BME280;964;42.606;23.588;2023-08-12T11:46:55;94798.97;;;55.73;10.63
1926;BME280;964;42.606;23.588;2023-08-12T11:49:22;94791.47;;;56.15;10.91
1926;BME280;964;42.606;23.588;2023-08-12T11:51:50;94790.84;;;54.87;11.03
1926;BME280;964;42.606;23.588;2023-08-12T11:54:17;94793.53;;;54.54;10.96
1926;BME280;964;42.606;23.588;2023-08-12T11:56:44;94786.84;;;56.24;10.58
1926;BME280;964;42.606;23.588;2023-08-12T11:59:11;94788.50;;;56.29;10.29
1926;BME280;964;42.606;23.588;2023-08-12T12:01:37;94774.44;;;56.70;10.49
1926;BME280;964;42.606;23.588;2023-08-12T12:04:04;94785.66;;;56.46;10.92
1926;BME280;964;42.606;23.588;2023-08-12T12:06:32;94780.69;;;55.78;11.13
1926;BME280;964;42.606;23.588;2023-08-12T12:09:04;94778.78;;;56.36;10.19
1926;BME280;964;42.606;23.588;2023-08-12T12:11:31;94780.31;;;56.03;10.43
1926;BME280;964;42.606;23.588;2023-08-12T12:14:01;94794.41;;;53.43;11.39
1926;BME280;964;42.606;23.588;2023-08-12T12:16:37;94779.56;;;55.20;11.15
1926;BME280;964;42.606;23.588;2023-08-12T12:19:04;94794.84;;;51.72;13.66
1926;BME280;964;42.606;23.588;2023-08-12T12:21:39;94791.34;;;52.48;13.47
1926;BME280;964;42.606;23.588;2023-08-12T12:24:08;94786.63;;;53.57;13.30
1926;BME280;964;42.606;23.588;2023-08-12T12:26:34;94801.72;;;53.21;13.46
1926;BME280;964;42.606;23.588;2023-08-12T12:29:01;94810.69;;;51.31;14.51
1926;BME280;964;42.606;23.588;2023-08-12T12:31:28;94794.75;;;52.97;13.52
1926;BME280;964;42.606;23.588;2023-08-12T12:33:55;94798.66;;;53.03;13.46
1926;BME280;964;42.606;23.588;2023-08-12T12:36:22;94806.28;;;49.94;14.64
1926;BME280;964;42.606;23.588;2023-08-12T12:38:49;94788.50;;;52.73;13.99
1926;BME280;964;42.606;23.588;2023-08-12T12:41:18;94790.44;;;52.82;13.98
1926;BME280;964;42.606;23.588;2023-08-12T12:43:45;94785.34;;;53.60;13.50
1926;BME280;964;42.606;23.588;2023-08-12T12:46:11;94789.66;;;53.75;13.42
1926;BME280;964;42.606;23.588;2023-08-12T12:48:38;94783.78;;;52.02;13.43
1926;BME280;964;42.606;23.588;2023-08-12T12:51:06;94787.19;;;51.75;14.25
1926;BME280;964;42.606;23.588;2023-08-12T12:53:33;94788.97;;;51.10;14.09
1926;BME280;964;42.606;23.588;2023-08-12T12:55:59;94786.59;;;52.13;13.74
1926;BME280;964;42.606;23.588;2023-08-12T12:58:30;94782.75;;;52.20;13.71
1926;BME280;964;42.606;23.588;2023-08-12T13:00:58;94776.81;;;52.53;13.59
1926;BME280;964;42.606;23.588;2023-08-12T13:03:25;94775.75;;;52.99;13.59
1926;BME280;964;42.606;23.588;2023-08-12T13:05:52;94775.59;;;53.22;13.92
1926;BME280;964;42.606;23.588;2023-08-12T13:08:19;94773.72;;;51.99;14.50
1926;BME280;964;42.606;23.588;2023-08-12T13:10:45;94781.09;;;50.97;14.77
1926;BME280;964;42.606;23.588;2023-08-12T13:13:13;94781.31;;;51.01;14.90
1926;BME280;964;42.606;23.588;2023-08-12T13:15:41;94783.31;;;51.33;14.76
1926;BME280;964;42.606;23.588;2023-08-12T13:18:08;94782.28;;;50.94;15.22
1926;BME280;964;42.606;23.588;2023-08-12T13:20:35;94781.34;;;51.24;15.05
1926;BME280;964;42.606;23.588;2023-08-12T13:23:01;94781.72;;;52.27;14.53